Time;durP1;ratioP1;P1;durP2;ratioP2;P2;SDS_P1;SDS_P2;PMS_P1;PMS_P2;Temp;Humidity;BMP_temperature;BMP_pressure;BME280_temperature;BME280_humidity;BME280_pressure;Samples;Min_cycle;Max_cycle;Signal;HPM_P1;HPM_P2
2021/03/08 00:01:16;;;;;;;35.47;20.85;;;-0.40;8.90;;;;;;4901078;29;20407;-77
2021/03/08 00:03:43;;;;;;;33.55;19.80;;;-0.40;9.20;;;;;;4906979;29;20513;-77
2021/03/08 00:06:11;;;;;;;42.60;22.65;;;-0.40;10.00;;;;;;4907952;29;20214;-78
2021/03/08 00:08:38;;;;;;;36.47;20.70;;;-0.40;9.50;;;;;;4903619;29;20048;-77
2021/03/08 00:11:05;;;;;;;50.08;23.13;;;-0.60;9.60;;;;;;4900643;29;20075;-75
2021/03/08 00:13:32;;;;;;;40.60;22.08;;;-0.60;10.10;;;;;;4902027;29;20055;-75
2021/03/08 00:15:59;;;;;;;42.53;21.55;;;-0.60;10.50;;;;;;4905912;29;20051;-78
2021/03/08 00:18:26;;;;;;;39.53;21.48;;;-0.70;11.00;;;;;;4900369;29;20044;-78
2021/03/08 00:20:54;;;;;;;40.20;22.25;;;-0.60;11.90;;;;;;4881685;29;20468;-76
2021/03/08 00:23:22;;;;;;;40.15;21.58;;;-0.70;10.90;;;;;;4911312;29;20503;-76
2021/03/08 00:25:50;;;;;;;38.67;22.83;;;-0.70;11.00;;;;;;4904212;29;20082;-76
2021/03/08 00:28:17;;;;;;;38.42;20.90;;;-0.70;11.90;;;;;;4904556;29;20151;-76
2021/03/08 00:30:44;;;;;;;38.13;21.08;;;-0.80;12.30;;;;;;4900053;29;20499;-75
2021/03/08 00:33:12;;;;;;;36.60;21.05;;;-0.70;12.50;;;;;;4902740;29;20089;-76
2021/03/08 00:35:39;;;;;;;38.08;20.42;;;-0.90;11.40;;;;;;4905875;29;20433;-77
2021/03/08 00:38:06;;;;;;;39.30;23.20;;;-0.90;11.50;;;;;;4904190;29;20052;-73
2021/03/08 00:40:34;;;;;;;45.20;23.45;;;-0.80;11.70;;;;;;4902089;29;20044;-76
2021/03/08 00:43:01;;;;;;;37.60;21.65;;;-0.90;11.50;;;;;;4899684;29;20419;-78
2021/03/08 00:45:28;;;;;;;40.88;22.63;;;-0.80;11.70;;;;;;4901696;29;20048;-77
2021/03/08 00:47:55;;;;;;;36.50;22.05;;;-0.80;11.00;;;;;;4899126;29;20057;-77
2021/03/08 00:50:25;;;;;;;39.15;21.98;;;-0.90;11.10;;;;;;4903220;29;20068;-74
2021/03/08 00:52:52;;;;;;;33.28;19.70;;;-0.90;10.50;;;;;;4903507;29;20048;-76
2021/03/08 00:55:20;;;;;;;38.35;21.20;;;-0.90;10.10;;;;;;4899983;29;20078;-76
2021/03/08 00:57:48;;;;;;;36.20;21.30;;;-0.80;9.90;;;;;;4900237;29;20056;-75
2021/03/08 01:00:17;;;;;;;39.17;20.50;;;-0.80;8.90;;;;;;4904372;29;20064;-76
2021/03/08 01:02:45;;;;;;;34.88;20.25;;;-0.90;9.00;;;;;;4911825;29;20045;-76
2021/03/08 01:05:14;;;;;;;34.67;19.80;;;-0.90;8.20;;;;;;4900298;29;20052;-74
2021/03/08 01:07:42;;;;;;;33.92;18.42;;;-0.90;8.10;;;;;;4900544;29;20111;-74
2021/03/08 01:10:11;;;;;;;32.25;19.23;;;-0.60;5.40;;;;;;4899264;29;20052;-74
2021/03/08 01:12:39;;;;;;;31.70;18.88;;;-0.50;5.00;;;;;;4907592;29;20137;-75
2021/03/08 01:15:09;;;;;;;32.40;18.73;;;-0.60;5.10;;;;;;4898762;29;20107;-74
2021/03/08 01:17:37;;;;;;;32.50;18.83;;;-0.60;5.00;;;;;;4900906;29;20060;-76
2021/03/08 01:20:06;;;;;;;44.35;19.08;;;-0.80;5.30;;;;;;4899897;29;20393;-77
2021/03/08 01:22:33;;;;;;;29.20;18.00;;;-0.90;5.30;;;;;;4909985;29;20127;-74
2021/03/08 01:25:00;;;;;;;34.63;20.38;;;-0.90;5.80;;;;;;4905368;29;20056;-77
2021/03/08 01:27:27;;;;;;;30.65;19.20;;;-0.90;5.70;;;;;;4900998;29;20063;-76
2021/03/08 01:29:59;;;;;;;35.45;20.92;;;-1.00;6.10;;;;;;4902667;29;20071;-75
2021/03/08 01:32:27;;;;;;;41.50;22.27;;;-1.00;6.70;;;;;;4903417;29;20135;-79
2021/03/08 01:34:54;;;;;;;35.90;21.17;;;-1.00;7.00;;;;;;4911547;29;20135;-77
2021/03/08 01:37:21;;;;;;;34.25;20.15;;;-1.00;7.20;;;;;;4904046;29;20059;-76
2021/03/08 01:39:49;;;;;;;36.58;20.38;;;-1.10;7.60;;;;;;4904058;29;20531;-74
2021/03/08 01:42:16;;;;;;;38.20;20.52;;;-1.10;8.10;;;;;;4901256;29;20764;-74
2021/03/08 01:44:43;;;;;;;32.22;20.17;;;-1.20;8.90;;;;;;4901365;29;20053;-75
2021/03/08 01:47:10;;;;;;;33.50;19.70;;;-1.30;8.60;;;;;;4906788;29;20051;-76
2021/03/08 01:49:39;;;;;;;32.22;19.50;;;-1.20;8.80;;;;;;4899330;29;20060;-76
2021/03/08 01:52:08;;;;;;;31.85;19.38;;;-1.20;8.60;;;;;;4905296;29;20054;-77
2021/03/08 01:54:35;;;;;;;32.45;20.08;;;-1.10;8.70;;;;;;4904286;29;20052;-75
2021/03/08 01:57:03;;;;;;;31.95;20.25;;;-1.20;8.00;;;;;;4899390;29;20822;-75
2021/03/08 01:59:30;;;;;;;36.30;20.13;;;-1.20;7.80;;;;;;4900056;29;20048;-75
2021/03/08 02:02:05;;;;;;;34.50;20.48;;;-1.30;8.10;;;;;;4901638;29;20456;-75
2021/03/08 02:04:33;;;;;;;33.72;19.77;;;-1.30;8.10;;;;;;4905659;29;20107;-74
2021/03/08 02:07:01;;;;;;;32.13;19.65;;;-1.20;8.40;;;;;;4899753;29;20075;-77
2021/03/08 02:09:28;;;;;;;33.15;20.02;;;-1.30;8.30;;;;;;4904505;29;20393;-76
2021/03/08 02:12:01;;;;;;;35.00;21.20;;;-1.40;9.00;;;;;;4900621;29;20072;-76
2021/03/08 02:14:52;;;;;;;34.33;20.35;;;-1.50;9.30;;;;;;4905442;29;20112;-76
2021/03/08 02:17:25;;;;;;;36.70;20.88;;;-1.60;9.70;;;;;;4905481;29;20055;-76
2021/03/08 02:20:31;;;;;;;37.33;22.20;;;-1.60;10.30;;;;;;4902058;29;20422;-78
2021/03/08 02:23:35;;;;;;;35.15;20.83;;;-1.60;10.60;;;;;;4906440;29;20067;-78
2021/03/08 02:26:30;;;;;;;41.90;21.33;;;-1.70;11.10;;;;;;4908868;29;20639;-78
2021/03/08 02:29:49;;;;;;;33.45;20.10;;;-1.70;11.00;;;;;;4904484;29;20060;-77
2021/03/08 02:32:20;;;;;;;34.70;20.98;;;-1.80;11.80;;;;;;4847283;29;20049;-77
2021/03/08 02:34:55;;;;;;;39.75;22.23;;;-1.80;11.80;;;;;;4904937;29;20844;-78
2021/03/08 02:37:26;;;;;;;41.15;23.27;;;-1.90;12.20;;;;;;4905879;29;20432;-78
2021/03/08 02:40:01;;;;;;;36.83;23.05;;;-2.00;12.90;;;;;;4900754;29;20051;-77
2021/03/08 02:42:34;;;;;;;35.95;21.98;;;-1.90;13.90;;;;;;4906295;29;20051;-79
2021/03/08 02:45:02;;;;;;;34.53;21.60;;;-1.80;13.80;;;;;;4907131;29;20052;-77
2021/03/08 02:47:32;;;;;;;33.33;21.10;;;-1.70;12.60;;;;;;4902282;29;20056;-77
2021/03/08 02:50:02;;;;;;;38.10;22.45;;;-1.70;12.50;;;;;;4903058;29;20048;-78
2021/03/08 02:52:33;;;;;;;32.78;20.50;;;-1.70;12.20;;;;;;4907608;29;20058;-77
2021/03/08 02:55:01;;;;;;;35.97;22.02;;;-1.70;12.20;;;;;;4904237;29;20055;-77
2021/03/08 02:57:32;;;;;;;36.38;21.65;;;-1.80;11.80;;;;;;4904451;29;20400;-77
2021/03/08 03:00:06;;;;;;;33.63;20.60;;;-1.90;12.50;;;;;;4896466;29;20401;-77
2021/03/08 03:02:34;;;;;;;35.42;22.42;;;-1.90;13.40;;;;;;4908643;29;20047;-77
2021/03/08 03:05:06;;;;;;;38.67;22.75;;;-2.00;13.30;;;;;;4911594;29;20372;-76
2021/03/08 03:07:35;;;;;;;38.67;21.75;;;-1.90;13.60;;;;;;4906958;29;20074;-77
2021/03/08 03:10:06;;;;;;;37.15;23.30;;;-2.00;13.40;;;;;;4904716;29;20080;-76
2021/03/08 03:12:35;;;;;;;38.75;23.88;;;-2.00;13.90;;;;;;4909971;29;20052;-77
2021/03/08 03:15:05;;;;;;;33.90;21.83;;;-2.00;14.10;;;;;;4907112;29;20048;-77
2021/03/08 03:17:35;;;;;;;37.97;23.15;;;-2.00;13.50;;;;;;4907009;29;20066;-77
2021/03/08 03:20:04;;;;;;;38.03;21.00;;;-2.10;13.80;;;;;;4895436;29;20452;-77
2021/03/08 03:22:32;;;;;;;33.70;21.35;;;-2.00;14.60;;;;;;4906491;29;20049;-78
2021/03/08 03:25:01;;;;;;;37.97;21.95;;;-2.00;14.00;;;;;;4902530;29;20052;-78
2021/03/08 03:27:29;;;;;;;34.47;21.35;;;-2.00;13.90;;;;;;4908016;29;20052;-76
2021/03/08 03:29:57;;;;;;;38.22;22.77;;;-2.10;14.30;;;;;;4904780;29;20052;-77
2021/03/08 03:32:24;;;;;;;34.15;22.38;;;-2.00;15.50;;;;;;4904304;29;20056;-76
2021/03/08 03:34:54;;;;;;;37.67;22.70;;;-2.10;14.80;;;;;;4898211;29;20139;-77
2021/03/08 03:37:24;;;;;;;36.50;21.02;;;-2.10;14.80;;;;;;4901314;29;20061;-75
2021/03/08 03:39:52;;;;;;;39.45;21.30;;;-2.20;15.00;;;;;;4905684;29;20062;-78
2021/03/08 03:42:19;;;;;;;35.58;21.27;;;-2.20;15.80;;;;;;4900078;29;20052;-76
2021/03/08 03:44:46;;;;;;;39.03;22.08;;;-2.20;17.40;;;;;;4908586;29;20051;-76
2021/03/08 03:47:16;;;;;;;39.22;22.20;;;-2.20;16.50;;;;;;4900503;29;20056;-77
2021/03/08 03:49:43;;;;;;;40.40;21.92;;;-2.30;16.30;;;;;;4901376;29;20132;-78
2021/03/08 03:52:11;;;;;;;43.03;23.63;;;-2.30;16.50;;;;;;4900897;29;20045;-76
2021/03/08 03:54:38;;;;;;;40.17;22.52;;;-2.20;16.90;;;;;;4907995;29;20062;-75
2021/03/08 03:57:07;;;;;;;37.33;22.92;;;-2.20;16.80;;;;;;4893505;29;20056;-76
2021/03/08 03:59:43;;;;;;;38.05;22.90;;;-2.30;17.10;;;;;;4900769;29;20059;-76
2021/03/08 04:02:15;;;;;;;40.10;23.00;;;-2.30;17.20;;;;;;4901403;29;20055;-75
2021/03/08 04:04:49;;;;;;;37.50;23.10;;;-2.30;17.30;;;;;;4909917;29;20056;-77
2021/03/08 04:07:19;;;;;;;35.83;21.13;;;-2.40;17.70;;;;;;4895634;29;20503;-77
2021/03/08 04:09:49;;;;;;;36.67;22.52;;;-2.50;18.30;;;;;;4910546;29;20048;-77
2021/03/08 04:12:19;;;;;;;45.10;24.20;;;-2.40;18.30;;;;;;4907607;29;20503;-76
2021/03/08 04:14:47;;;;;;;40.60;22.75;;;-2.40;18.30;;;;;;4904584;29;20044;-75
2021/03/08 04:17:15;;;;;;;36.72;24.23;;;-2.40;17.90;;;;;;4900401;29;20052;-77
2021/03/08 04:19:45;;;;;;;37.65;23.50;;;-2.40;17.60;;;;;;4899481;29;20057;-76
2021/03/08 04:22:13;;;;;;;37.47;21.90;;;-2.40;17.30;;;;;;4897904;29;20526;-78
2021/03/08 04:24:43;;;;;;;35.53;21.67;;;-2.30;16.80;;;;;;4907121;29;20057;-77
2021/03/08 04:27:13;;;;;;;35.25;21.55;;;-2.30;15.30;;;;;;4904101;29;20052;-77
2021/03/08 04:29:41;;;;;;;36.97;21.95;;;-2.40;15.60;;;;;;4906050;29;20049;-77
2021/03/08 04:32:17;;;;;;;37.00;21.25;;;-2.40;16.00;;;;;;4885975;29;20469;-76
2021/03/08 04:34:47;;;;;;;33.67;20.98;;;-2.50;16.30;;;;;;4899461;29;20151;-78
2021/03/08 04:37:14;;;;;;;38.10;21.85;;;-2.30;16.90;;;;;;4902434;29;20059;-77
2021/03/08 04:39:44;;;;;;;31.48;20.05;;;-2.30;16.40;;;;;;4905308;29;20044;-78
2021/03/08 04:42:13;;;;;;;33.00;20.40;;;-2.30;16.00;;;;;;4901295;29;20047;-78
2021/03/08 04:44:42;;;;;;;35.55;21.00;;;-2.30;15.70;;;;;;4906606;29;20050;-76
2021/03/08 04:47:09;;;;;;;34.75;21.73;;;-2.40;15.90;;;;;;4908620;29;20427;-78
2021/03/08 04:49:40;;;;;;;34.38;20.60;;;-2.40;16.00;;;;;;4903887;29;20822;-77
2021/03/08 04:52:09;;;;;;;33.63;21.05;;;-2.50;16.30;;;;;;4900256;29;20052;-78
2021/03/08 04:54:36;;;;;;;36.92;22.13;;;-2.50;16.50;;;;;;4900571;29;20237;-78
2021/03/08 04:57:08;;;;;;;35.15;20.92;;;-2.60;16.70;;;;;;4910094;29;20044;-78
2021/03/08 04:59:35;;;;;;;33.90;21.33;;;-2.60;17.20;;;;;;4904977;29;20056;-78
2021/03/08 05:02:02;;;;;;;37.22;21.85;;;-2.60;17.80;;;;;;4906153;29;20071;-78
2021/03/08 05:04:31;;;;;;;38.95;22.67;;;-2.60;18.20;;;;;;4904270;29;20415;-78
2021/03/08 05:06:59;;;;;;;36.67;21.63;;;-2.60;18.20;;;;;;4907009;29;20052;-77
2021/03/08 05:09:26;;;;;;;39.25;21.95;;;-2.60;18.20;;;;;;4898537;29;20059;-76
2021/03/08 05:11:55;;;;;;;38.67;22.33;;;-2.70;18.10;;;;;;4897052;29;20496;-79
2021/03/08 05:14:25;;;;;;;37.83;24.13;;;-2.80;18.10;;;;;;4899115;29;20465;-78
2021/03/08 05:16:54;;;;;;;37.25;22.30;;;-2.80;18.40;;;;;;4900059;29;20049;-78
2021/03/08 05:19:23;;;;;;;37.10;22.40;;;-2.80;18.90;;;;;;4904907;29;20112;-76
2021/03/08 05:21:52;;;;;;;39.42;23.05;;;-2.80;18.90;;;;;;4893453;29;20407;-76
2021/03/08 05:24:20;;;;;;;40.10;23.33;;;-2.80;19.70;;;;;;4907027;29;20059;-76
2021/03/08 05:26:47;;;;;;;38.03;21.85;;;-2.90;18.90;;;;;;4902990;29;20060;-77
2021/03/08 05:29:14;;;;;;;37.50;22.02;;;-2.90;19.80;;;;;;4909783;29;20055;-76
2021/03/08 05:31:45;;;;;;;39.47;22.17;;;-2.80;19.90;;;;;;4897444;29;20512;-76
2021/03/08 05:34:15;;;;;;;41.03;23.33;;;-2.90;19.50;;;;;;4905142;29;20048;-77
2021/03/08 05:36:45;;;;;;;38.25;22.67;;;-2.90;19.80;;;;;;4903402;29;20067;-76
2021/03/08 05:39:13;;;;;;;35.67;22.23;;;-2.80;20.30;;;;;;4899173;29;20061;-77
2021/03/08 05:41:51;;;;;;;35.95;21.27;;;-2.80;19.50;;;;;;4899062;29;20051;-75
2021/03/08 05:44:19;;;;;;;44.03;24.15;;;-2.70;19.80;;;;;;4902348;29;20055;-74
2021/03/08 05:47:15;;;;;;;43.70;24.67;;;-2.70;19.70;;;;;;4912739;29;20048;-74
2021/03/08 05:50:21;;;;;;;37.70;22.20;;;-2.50;19.70;;;;;;4910836;29;20143;-75
2021/03/08 05:53:07;;;;;;;;;;;-2.40;18.30;;;;;;4851438;29;20059;-74
2021/03/08 05:56:16;;;;;;;35.13;21.05;;;-2.30;17.50;;;;;;4907830;29;19928;-76
2021/03/08 05:59:20;;;;;;;36.35;22.60;;;-2.30;17.00;;;;;;4893153;29;20057;-75
2021/03/08 06:02:02;;;;;;;37.63;21.85;;;-2.20;16.70;;;;;;4888727;29;20052;-75
2021/03/08 06:05:06;;;;;;;39.90;21.75;;;-2.30;16.40;;;;;;4896570;29;20486;-74
2021/03/08 06:08:24;;;;;;;38.55;22.42;;;-2.20;16.40;;;;;;4903084;29;20060;-74
2021/03/08 06:11:05;;;;;;;35.65;20.92;;;-2.20;16.30;;;;;;4901928;29;20534;-76
2021/03/08 06:13:39;;;;;;;35.90;22.23;;;-2.20;15.70;;;;;;4903942;29;20056;-75
2021/03/08 06:16:09;;;;;;;41.22;22.08;;;-2.20;16.00;;;;;;4903459;29;20091;-75
2021/03/08 06:18:44;;;;;;;38.45;21.27;;;-2.20;15.70;;;;;;4902480;29;20087;-76
2021/03/08 06:21:13;;;;;;;41.00;23.10;;;-2.20;15.70;;;;;;4902619;29;20455;-76
2021/03/08 06:23:42;;;;;;;40.28;21.90;;;-2.10;15.60;;;;;;4910923;29;20067;-76
2021/03/08 06:26:10;;;;;;;38.72;23.30;;;-2.00;15.20;;;;;;4902212;29;20071;-76
2021/03/08 06:28:37;;;;;;;38.88;23.10;;;-2.00;15.00;;;;;;4900466;29;20059;-75
2021/03/08 06:31:05;;;;;;;39.70;22.75;;;-1.90;14.90;;;;;;4907354;29;20056;-76
2021/03/08 06:33:51;;;;;;;39.95;23.55;;;-1.80;14.70;;;;;;4904897;29;20567;-75
2021/03/08 06:36:18;;;;;;;39.53;24.23;;;-1.70;14.00;;;;;;4900567;29;20052;-77
2021/03/08 06:38:45;;;;;;;39.92;22.35;;;-1.70;13.40;;;;;;4901609;29;20053;-76
2021/03/08 06:41:12;;;;;;;37.92;22.48;;;-1.60;12.20;;;;;;4902799;29;20059;-76
2021/03/08 06:43:40;;;;;;;39.60;24.75;;;-1.50;12.30;;;;;;4909333;29;20044;-74
2021/03/08 06:46:07;;;;;;;35.95;22.33;;;-1.50;12.00;;;;;;4909213;29;20131;-76
2021/03/08 06:48:35;;;;;;;53.05;23.10;;;-1.50;12.00;;;;;;4903981;29;20514;-76
2021/03/08 06:51:11;;;;;;;34.33;20.13;;;-1.40;11.80;;;;;;4898202;29;20585;-76
2021/03/08 06:53:39;;;;;;;39.03;21.40;;;-1.40;9.90;;;;;;4904108;29;20414;-78
2021/03/08 06:56:18;;;;;;;37.50;19.75;;;-1.40;10.30;;;;;;4914471;29;20062;-76
2021/03/08 06:58:45;;;;;;;32.42;20.52;;;-1.50;9.40;;;;;;4896959;29;20064;-77
2021/03/08 07:01:32;;;;;;;34.33;19.67;;;-1.40;9.10;;;;;;4902541;29;20052;-76
2021/03/08 07:04:17;;;;;;;33.45;20.20;;;-1.40;9.40;;;;;;4908966;29;20059;-77
2021/03/08 07:06:58;;;;;;;29.38;18.55;;;-1.20;9.30;;;;;;4907371;29;20059;-77
2021/03/08 07:09:25;;;;;;;28.85;18.85;;;-1.20;8.90;;;;;;4909740;29;20052;-77
2021/03/08 07:12:09;;;;;;;31.35;17.63;;;-1.30;8.60;;;;;;4904789;29;20040;-78
2021/03/08 07:14:38;;;;;;;35.30;20.23;;;-1.20;8.60;;;;;;4904654;29;20058;-77
2021/03/08 07:17:30;;;;;;;29.92;18.85;;;-1.00;8.50;;;;;;4906825;29;20481;-76
2021/03/08 07:19:58;;;;;;;29.70;17.45;;;-0.90;7.30;;;;;;4904248;29;20120;-76
2021/03/08 07:22:44;;;;;;;28.20;17.92;;;-1.00;7.10;;;;;;4908760;29;20096;-77
2021/03/08 07:25:20;;;;;;;28.77;16.40;;;-0.90;6.70;;;;;;4910334;29;20071;-77
2021/03/08 07:27:48;;;;;;;26.33;17.23;;;-0.80;6.00;;;;;;4908434;29;20052;-77
2021/03/08 07:30:18;;;;;;;26.05;16.42;;;-0.80;6.00;;;;;;4902355;29;20139;-77
2021/03/08 07:32:57;;;;;;;27.70;17.63;;;-0.70;5.30;;;;;;4906191;29;20522;-76
2021/03/08 07:35:43;;;;;;;26.92;16.73;;;-0.90;4.40;;;;;;4907705;29;20048;-77
2021/03/08 07:38:12;;;;;;;26.55;16.50;;;-0.70;5.30;;;;;;4908069;29;20490;-78
2021/03/08 07:40:41;;;;;;;26.10;15.45;;;-0.60;5.40;;;;;;4900928;29;20056;-77
2021/03/08 07:43:19;;;;;;;29.85;17.15;;;-0.50;4.50;;;;;;4909044;29;20100;-76
2021/03/08 07:45:46;;;;;;;28.00;16.25;;;-0.40;4.30;;;;;;4905316;29;20052;-77
2021/03/08 07:48:15;;;;;;;28.75;16.30;;;-0.20;3.40;;;;;;4902440;29;20064;-76
2021/03/08 07:50:44;;;;;;;37.38;15.75;;;-0.10;2.90;;;;;;4904246;29;20055;-75
2021/03/08 07:53:34;;;;;;;28.58;16.25;;;0.00;2.30;;;;;;4902988;29;20415;-78
2021/03/08 07:56:03;;;;;;;25.27;14.52;;;0.00;1.60;;;;;;4897736;29;20090;-77
2021/03/08 07:58:32;;;;;;;25.08;14.23;;;0.20;1.00;;;;;;4902548;29;20422;-76
2021/03/08 08:01:01;;;;;;;25.88;15.18;;;0.30;1.00;;;;;;4901868;29;20048;-77
2021/03/08 08:03:28;;;;;;;27.13;15.98;;;0.40;1.00;;;;;;4905934;29;20411;-77
2021/03/08 08:05:59;;;;;;;26.70;15.93;;;0.50;1.00;;;;;;4905071;29;20482;-78
2021/03/08 08:08:28;;;;;;;23.92;13.93;;;0.60;1.00;;;;;;4900412;29;20064;-77
2021/03/08 08:10:58;;;;;;;21.52;13.93;;;0.70;1.00;;;;;;4900317;29;20360;-79
2021/03/08 08:13:35;;;;;;;25.00;14.75;;;0.70;1.00;;;;;;4904103;29;20055;-78
2021/03/08 08:16:06;;;;;;;22.13;13.35;;;0.80;1.00;;;;;;4906261;29;20055;-77
2021/03/08 08:18:37;;;;;;;26.90;15.45;;;0.90;1.00;;;;;;4903136;29;20475;-78
2021/03/08 08:21:06;;;;;;;25.33;15.00;;;1.00;1.00;;;;;;4902560;29;20480;-77
2021/03/08 08:23:40;;;;;;;23.40;15.52;;;1.10;1.00;;;;;;4903804;29;20055;-75
2021/03/08 08:26:10;;;;;;;22.85;14.50;;;1.20;1.00;;;;;;4911661;29;20131;-76
2021/03/08 08:28:39;;;;;;;23.00;14.38;;;1.20;1.00;;;;;;4905811;29;20048;-76
2021/03/08 08:31:06;;;;;;;26.15;14.90;;;1.40;1.00;;;;;;4906070;29;20559;-77
2021/03/08 08:33:34;;;;;;;24.90;14.20;;;1.20;1.00;;;;;;4904132;29;20372;-76
2021/03/08 08:36:16;;;;;;;24.02;14.15;;;1.50;1.00;;;;;;4906821;29;20136;-76
2021/03/08 08:39:14;;;;;;;21.20;14.30;;;1.50;1.00;;;;;;4905810;29;20141;-76
2021/03/08 08:41:43;;;;;;;23.35;13.93;;;1.70;1.00;;;;;;4900088;29;20430;-77
2021/03/08 08:44:37;;;;;;;22.25;14.43;;;1.80;1.00;;;;;;4908787;29;20048;-75
2021/03/08 08:47:33;;;;;;;23.50;13.45;;;2.00;1.00;;;;;;4904818;29;20048;-75
2021/03/08 08:50:04;;;;;;;26.70;14.07;;;2.00;1.00;;;;;;4870405;29;20534;-77
2021/03/08 08:52:50;;;;;;;21.13;13.43;;;2.20;1.00;;;;;;4906612;29;20055;-75
2021/03/08 08:55:20;;;;;;;24.55;14.10;;;2.40;1.00;;;;;;4906631;29;20067;-76
2021/03/08 08:58:23;;;;;;;22.73;12.88;;;2.30;1.00;;;;;;4902306;29;20052;-77
2021/03/08 09:01:32;;;;;;;18.23;12.48;;;2.60;1.00;;;;;;4902413;29;20056;-75
2021/03/08 09:04:00;;;;;;;22.77;12.80;;;2.70;1.00;;;;;;4910969;29;20577;-78
2021/03/08 09:06:42;;;;;;;17.55;11.57;;;2.60;1.00;;;;;;4900752;29;20062;-76
2021/03/08 09:09:09;;;;;;;17.92;12.15;;;2.80;1.00;;;;;;4904586;29;20075;-76
2021/03/08 09:11:45;;;;;;;18.25;11.27;;;2.70;1.00;;;;;;4897855;29;20064;-77
2021/03/08 09:14:30;;;;;;;16.33;10.32;;;2.70;1.00;;;;;;4899125;29;20504;-77
2021/03/08 09:17:09;;;;;;;15.40;10.32;;;2.90;1.00;;;;;;4902602;29;20693;-76
2021/03/08 09:19:36;;;;;;;17.67;10.93;;;3.10;1.00;;;;;;4903849;29;20087;-77
2021/03/08 09:22:35;;;;;;;19.02;10.90;;;3.30;1.00;;;;;;4900158;29;20041;-77
2021/03/08 09:25:13;;;;;;;18.40;10.63;;;3.30;1.00;;;;;;4911501;29;20091;-78
2021/03/08 09:27:42;;;;;;;20.60;11.43;;;3.30;1.00;;;;;;4903883;29;20419;-76
2021/03/08 09:30:13;;;;;;;16.60;11.05;;;3.40;1.00;;;;;;4905209;29;20611;-78
2021/03/08 09:32:47;;;;;;;16.80;10.75;;;3.30;1.00;;;;;;4905298;29;20394;-78
2021/03/08 09:35:16;;;;;;;16.58;10.93;;;3.30;1.00;;;;;;4906971;29;20135;-77
2021/03/08 09:37:45;;;;;;;19.27;10.60;;;3.40;1.00;;;;;;4906096;29;20068;-77
2021/03/08 09:40:16;;;;;;;18.35;11.43;;;3.50;1.00;;;;;;4901667;29;20519;-76
2021/03/08 09:42:43;;;;;;;19.13;12.13;;;3.60;1.00;;;;;;4908700;29;20080;-77
2021/03/08 09:45:23;;;;;;;15.85;11.15;;;3.50;1.00;;;;;;4908702;29;20075;-75
2021/03/08 09:47:51;;;;;;;18.98;11.30;;;3.60;1.00;;;;;;4906082;29;20112;-76
2021/03/08 09:50:35;;;;;;;;;;;3.60;1.00;;;;;;4903301;29;20067;-77
2021/03/08 09:53:03;;;;;;;16.38;10.00;;;3.60;1.00;;;;;;4906856;29;19955;-75
2021/03/08 09:55:32;;;;;;;22.75;11.77;;;3.90;1.00;;;;;;4899548;29;20052;-75
2021/03/08 09:58:08;;;;;;;23.83;12.65;;;3.70;1.00;;;;;;4903181;29;20048;-76
2021/03/08 10:00:37;;;;;;;19.92;10.82;;;3.90;1.00;;;;;;4901733;29;20526;-75
2021/03/08 10:03:05;;;;;;;18.85;11.70;;;4.10;1.00;;;;;;4905385;29;20605;-74
2021/03/08 10:05:44;;;;;;;17.15;11.10;;;4.00;1.00;;;;;;4907396;29;20049;-75
2021/03/08 10:08:13;;;;;;;17.38;10.85;;;3.80;1.00;;;;;;4908352;29;20478;-77
2021/03/08 10:10:45;;;;;;;17.13;10.40;;;4.10;1.00;;;;;;4904469;29;20060;-74
2021/03/08 10:13:13;;;;;;;18.38;11.23;;;4.00;1.00;;;;;;4904672;29;20445;-75
2021/03/08 10:15:49;;;;;;;18.35;11.80;;;4.20;1.00;;;;;;4911277;29;20058;-75
2021/03/08 10:18:17;;;;;;;14.45;10.45;;;4.60;1.00;;;;;;4903120;29;20083;-74
2021/03/08 10:20:50;;;;;;;19.23;11.38;;;4.50;1.00;;;;;;4904686;29;20068;-75
2021/03/08 10:23:19;;;;;;;17.83;10.98;;;4.50;1.00;;;;;;4910323;29;20050;-74
2021/03/08 10:25:46;;;;;;;21.58;11.27;;;4.50;1.00;;;;;;4904376;29;20056;-76
2021/03/08 10:28:14;;;;;;;17.63;11.55;;;4.50;1.00;;;;;;4900868;29;20618;-75
2021/03/08 10:30:41;;;;;;;18.20;11.25;;;4.50;1.00;;;;;;4902462;29;20048;-73
2021/03/08 10:33:11;;;;;;;15.98;10.27;;;4.70;1.00;;;;;;4907697;29;20051;-74
2021/03/08 10:35:41;;;;;;;15.75;10.13;;;4.70;1.00;;;;;;4907322;29;20048;-76
2021/03/08 10:38:27;;;;;;;23.58;9.65;;;4.80;1.00;;;;;;4903892;29;20057;-75
2021/03/08 10:40:56;;;;;;;18.60;10.25;;;4.20;1.00;;;;;;4904781;29;20060;-75
2021/03/08 10:43:25;;;;;;;11.98;8.32;;;4.70;1.00;;;;;;4903265;29;20064;-76
2021/03/08 10:45:54;;;;;;;13.45;8.57;;;4.70;1.00;;;;;;4904302;29;20059;-77
2021/03/08 10:48:22;;;;;;;17.48;9.88;;;4.80;1.00;;;;;;4902312;29;20533;-76
2021/03/08 10:50:50;;;;;;;14.38;8.73;;;4.80;1.00;;;;;;4904401;29;20048;-75
2021/03/08 10:53:55;;;;;;;11.07;7.85;;;4.70;1.00;;;;;;4904989;29;20100;-76
2021/03/08 10:56:23;;;;;;;13.65;8.57;;;4.90;1.00;;;;;;4906396;29;20052;-75
2021/03/08 10:58:50;;;;;;;12.30;7.72;;;4.90;1.00;;;;;;4903835;29;20075;-77
2021/03/08 11:01:17;;;;;;;13.98;9.15;;;5.20;1.00;;;;;;4900334;29;20057;-77
2021/03/08 11:03:45;;;;;;;13.48;8.98;;;5.30;1.00;;;;;;4906633;29;20044;-76
2021/03/08 11:06:14;;;;;;;16.15;9.20;;;4.90;1.00;;;;;;4904951;29;20057;-77
2021/03/08 11:08:53;;;;;;;13.55;8.65;;;5.20;1.00;;;;;;4903750;29;20537;-77
2021/03/08 11:11:22;;;;;;;13.77;8.75;;;5.10;1.00;;;;;;4901117;29;20052;-75
2021/03/08 11:13:50;;;;;;;15.50;9.23;;;4.90;1.00;;;;;;4906801;29;20071;-77
2021/03/08 11:16:17;;;;;;;13.70;8.38;;;5.10;1.00;;;;;;4904557;29;20060;-76
2021/03/08 11:18:45;;;;;;;12.55;8.85;;;5.30;1.00;;;;;;4901696;29;20112;-77
2021/03/08 11:21:20;;;;;;;14.50;9.50;;;5.60;1.00;;;;;;4900311;29;20064;-78
2021/03/08 11:23:47;;;;;;;14.60;9.18;;;5.60;1.00;;;;;;4903835;29;20068;-76
2021/03/08 11:26:15;;;;;;;15.73;9.95;;;5.50;1.00;;;;;;4901711;29;20051;-76
2021/03/08 11:28:43;;;;;;;15.35;8.82;;;5.50;1.00;;;;;;4901638;29;20055;-78
2021/03/08 11:31:20;;;;;;;14.95;8.82;;;5.30;1.00;;;;;;4899265;29;20995;-77
2021/03/08 11:33:49;;;;;;;13.48;9.05;;;5.40;1.00;;;;;;4903928;29;20131;-77
2021/03/08 11:36:28;;;;;;;15.02;9.82;;;5.50;1.00;;;;;;4904806;29;20072;-76
2021/03/08 11:39:03;;;;;;;14.93;8.90;;;5.70;1.00;;;;;;4904072;29;20077;-76
2021/03/08 11:41:31;;;;;;;10.95;8.55;;;5.60;1.00;;;;;;4900843;29;20052;-76
2021/03/08 11:43:58;;;;;;;16.02;9.90;;;5.60;1.00;;;;;;4903023;29;20913;-77
2021/03/08 11:46:28;;;;;;;12.95;8.57;;;5.60;1.00;;;;;;4900915;29;20086;-76
2021/03/08 11:49:04;;;;;;;14.80;9.65;;;5.60;1.00;;;;;;4902948;29;20131;-75
2021/03/08 11:51:32;;;;;;;12.98;8.85;;;5.70;1.00;;;;;;4905965;29;20059;-76
2021/03/08 11:53:59;;;;;;;15.35;9.05;;;5.80;1.00;;;;;;4911836;29;20063;-76
2021/03/08 11:56:26;;;;;;;13.98;8.88;;;5.60;1.00;;;;;;4902325;29;20060;-78
2021/03/08 11:58:55;;;;;;;14.52;8.98;;;5.70;1.00;;;;;;4905847;29;20791;-77
2021/03/08 12:01:22;;;;;;;13.57;9.00;;;6.00;1.00;;;;;;4899332;29;20052;-78
2021/03/08 12:03:49;;;;;;;16.67;9.50;;;6.00;1.00;;;;;;4902702;29;20450;-77
2021/03/08 12:06:16;;;;;;;14.95;9.73;;;5.90;1.00;;;;;;4907143;29;20052;-77
2021/03/08 12:08:46;;;;;;;11.52;8.40;;;5.80;1.00;;;;;;4906517;29;20656;-77
2021/03/08 12:11:13;;;;;;;15.55;9.18;;;5.80;1.00;;;;;;4898840;29;20060;-77
2021/03/08 12:13:40;;;;;;;12.05;8.93;;;5.90;1.00;;;;;;4904407;29;20044;-78
2021/03/08 12:16:07;;;;;;;15.70;9.55;;;6.00;1.00;;;;;;4907941;29;20048;-77
2021/03/08 12:18:34;;;;;;;13.05;8.95;;;6.20;1.00;;;;;;4902958;29;20135;-79
2021/03/08 12:21:02;;;;;;;13.73;9.15;;;6.30;1.00;;;;;;4898400;29;20475;-78
2021/03/08 12:23:29;;;;;;;15.20;9.27;;;5.80;1.00;;;;;;4905806;29;20048;-77
2021/03/08 12:25:56;;;;;;;12.23;9.05;;;6.00;1.00;;;;;;4908299;29;20044;-77
2021/03/08 12:28:23;;;;;;;15.20;9.95;;;6.30;1.00;;;;;;4902683;29;20060;-77
2021/03/08 12:30:52;;;;;;;12.48;8.88;;;6.50;1.00;;;;;;4895734;29;20059;-82
2021/03/08 12:33:19;;;;;;;16.27;9.07;;;6.40;1.00;;;;;;4898504;29;20080;-74
2021/03/08 12:35:46;;;;;;;13.02;9.15;;;6.30;1.00;;;;;;4903361;29;20165;-74
2021/03/08 12:38:14;;;;;;;13.75;9.13;;;6.20;1.00;;;;;;4898565;29;20060;-77
2021/03/08 12:40:42;;;;;;;15.45;9.73;;;6.00;1.00;;;;;;4903287;29;20053;-76
2021/03/08 12:43:09;;;;;;;11.43;8.63;;;6.40;1.00;;;;;;4895196;29;20490;-75
2021/03/08 12:45:35;;;;;;;12.15;8.43;;;6.70;1.00;;;;;;4902940;29;20067;-75
2021/03/08 12:48:03;;;;;;;12.75;8.48;;;6.60;1.00;;;;;;4903924;29;20052;-74
2021/03/08 12:50:30;;;;;;;15.70;8.90;;;6.40;1.00;;;;;;4901271;29;20385;-76
2021/03/08 12:52:57;;;;;;;14.43;9.40;;;6.30;1.00;;;;;;4896552;29;20056;-74
2021/03/08 12:55:24;;;;;;;13.60;8.88;;;6.40;1.00;;;;;;4900592;29;20052;-74
2021/03/08 12:57:52;;;;;;;14.13;9.15;;;6.80;1.00;;;;;;4906488;29;20059;-74
2021/03/08 13:00:19;;;;;;;16.60;8.05;;;6.50;1.00;;;;;;4895841;29;20056;-74
2021/03/08 13:02:46;;;;;;;12.77;8.80;;;6.50;1.00;;;;;;4898397;29;20064;-75